Etusivu
METAR-TAF:

METAR-TAF

Lentoasemat :

Pangnirtungin lentoasema

Pangnirtung, Nunavut, Kanada

Leveyspiiri: 66-09N, Pituuspiiri: 065-43W, korkeus merenpinnasta: 23 m

Tämänhetkinen sää

Tämä raportti tehtiin 12 tuntia ja 6 minuuttia sitten, kello 23.00 UTC
tyyntä
Lämpötila -32°C
Kosteus 67%
Ilmanpaine 1023 hPa
Näkyvyys: 24.1 km
selkeää

METAR: CYXP 252300Z 00000KT 15SM SKC M32/M36 A3022 RMK S00 AFT12UTC/LAST STFD OBS/NEXT 261200Z SLP239

Aika: 06:06 (11:06 UTC)

Sääennuste

Tämä raportti tehtiin 16 tuntia ja 28 minuuttia sitten, kello 18.38 UTC
Ennuste voimassa 25. päivästä klo 19 UTC - 25. päivään klo 23 UTC
Tuuli 3 kn eri suunnista
Näkyvyys: 10 km
selkeää

TAF: CYXP 251838Z 2519/2523 VRB03KT P6SM SKC RMK NXT FCST WILL BE ISSUED AT 261345Z

Säähavainnot ja -ennusteet yli 4000 lentoasemalta (METAR- ja TAF-raportit).

Käytössä olevat sääasemat on merkitty karttaan keltaisilla ja punaisilla pisteillä.

Aseta hiiri pisteen päälle nähdäksesi sääaseman nimen.

Klikkaa sitten nähdäksesi säähavainnot ja -ennusteet.

Kartan vaihtaminen: klikkaa mustalla rastilla varustettuja vihreitä pisteitä, niin voit zoomata sisään; viivalla varustettua vihreää pistettä, niin voit zoomata ulos tai vihreitä nuolia, niin pääset viereisille kartoille.


METAR-TAF: